KFXE/FXE METAR and TAF weather

Enter ICAO airport designator
Station Type Date Time Source
KFXE METAR 2020/04/01 21:53 UTC NOAA

KFXE 012153Z 34009KT 10SM CLR 27/11 A2980 RMK AO2 SLP095 T02670106


Station Type Date Time Source
KFXE Decoded METAR 2020/04/01 21:53 UTC NOAA

FORT LAUDERDALE EXECUTIVE, FL, United States (KFXE) 26-12N 080-11W 6M
Apr 01, 2020 - 05:53 PM EDT / 2020.04.01 2153 UTC
Wind: from the NNW (340 degrees) at 10 MPH (9 KT):0
Visibility: 10 mile(s):0
Sky conditions: clear
Temperature: 80.1 F (26.7 C)
Dew Point: 51.1 F (10.6 C)
Relative Humidity: 36%
Pressure (altimeter): 29.8 in. Hg (1009 hPa)
ob: KFXE 012153Z 34009KT 10SM CLR 27/11 A2980 RMK AO2 SLP095 T02670106
cycle: 22

Station Type Date Time Source
KFXE TAF 2020/04/01 21:54 UTC NOAA

TAF
AMD KFXE 012052Z 0121/0218 33010G20KT P6SM FEW100 FEW250
FM020000 01008KT P6SM FEW250
FM021400 05010KT P6SM FEW050 SCT250

Example: see airport list